APF6567 UUEE-USCC
Flight info
| Callsign | APF6567 |
|---|---|
| Flight time | 2h 37m |
| Altitude | 37000 |
| Route | KOGOM3H KOGOM L94 EKPIR M864 INKEB L94 NAMER T765 GEMKI L94 NOGRI T872 IMANA L749 LUTAT LUTAT2D |
| Aircraft | A35K/H-SDE2E3GHIJ3J4J5LM1ORWXY/LB1D1 |
Departure
| Time | 2026-04-25 12:46 |
|---|---|
| Airport | Sheremetyevo International Airport (UUEE) |
Arrival
| Time | 2026-04-25 15:24 |
|---|---|
| Airport | Kurchatov Chelyabinsk International Airport (USCC) |
| Time | Latitude | Longitude | Altitude | Speed | Heading |
|---|---|---|---|---|---|
| 2026-04-25 12:36 | 55.98142 | 37.43826 | 641 ft | 0 kts | 164° |
| 2026-04-25 12:38 | 55.98141 | 37.43826 | 641 ft | 0 kts | 164° |
| 2026-04-25 12:38 | 55.98139 | 37.43827 | 641 ft | 2 kts | 164° |
| 2026-04-25 12:38 | 55.98156 | 37.43815 | 640 ft | 2 kts | 141° |
| 2026-04-25 12:38 | 55.98169 | 37.43795 | 637 ft | 3 kts | 122° |
| 2026-04-25 12:39 | 55.98176 | 37.43767 | 639 ft | 0 kts | 94° |
| 2026-04-25 12:39 | 55.98177 | 37.43780 | 639 ft | 2 kts | 82° |
| 2026-04-25 12:39 | 55.98178 | 37.43782 | 639 ft | 0 kts | 80° |
| 2026-04-25 12:39 | 55.98180 | 37.43791 | 640 ft | 2 kts | 71° |
| 2026-04-25 12:40 | 55.98182 | 37.43799 | 639 ft | 1 kts | 62° |
| 2026-04-25 12:40 | 55.98184 | 37.43803 | 644 ft | 0 kts | 58° |
| 2026-04-25 12:40 | 55.98190 | 37.43813 | 645 ft | 0 kts | 44° |
| 2026-04-25 12:42 | 55.98190 | 37.43815 | 645 ft | 0 kts | 47° |
| 2026-04-25 12:42 | 55.98191 | 37.43818 | 645 ft | 1 kts | 52° |
| 2026-04-25 12:42 | 55.98196 | 37.43858 | 645 ft | 2 kts | 92° |
| 2026-04-25 12:42 | 55.98190 | 37.43885 | 644 ft | 1 kts | 134° |
| 2026-04-25 12:43 | 55.98177 | 37.43895 | 646 ft | 3 kts | 153° |
| 2026-04-25 12:43 | 55.98160 | 37.43909 | 643 ft | 5 kts | 159° |
| 2026-04-25 12:43 | 55.98016 | 37.43989 | 638 ft | 13 kts | 163° |
| 2026-04-25 12:44 | 55.97956 | 37.44016 | 641 ft | 12 kts | 165° |
| 2026-04-25 12:44 | 55.97869 | 37.44058 | 641 ft | 14 kts | 164° |
| 2026-04-25 12:44 | 55.97786 | 37.44027 | 647 ft | 0 kts | 247° |
| 2026-04-25 12:45 | 55.97665 | 37.43258 | 640 ft | 93 kts | 256° |
| 2026-04-25 12:46 | 55.97446 | 37.41722 | 638 ft | 161 kts | 254° |
| 2026-04-25 12:46 | 55.97097 | 37.39515 | 821 ft | 203 kts | 254° |
| 2026-04-25 12:46 | 55.96682 | 37.36856 | 1091 ft | 241 kts | 255° |
| 2026-04-25 12:46 | 55.96210 | 37.33860 | 1958 ft | 253 kts | 254° |
| 2026-04-25 12:47 | 55.95727 | 37.30779 | 3002 ft | 264 kts | 255° |
| 2026-04-25 12:47 | 55.95233 | 37.27639 | 4113 ft | 261 kts | 254° |
| 2026-04-25 12:47 | 55.94743 | 37.24517 | 4936 ft | 263 kts | 254° |
| 2026-04-25 12:47 | 55.94247 | 37.21360 | 5660 ft | 267 kts | 254° |
| 2026-04-25 12:48 | 55.93741 | 37.18152 | 6431 ft | 270 kts | 254° |
| 2026-04-25 12:48 | 55.93231 | 37.14915 | 7228 ft | 273 kts | 254° |
| 2026-04-25 12:48 | 55.92714 | 37.11636 | 8012 ft | 276 kts | 254° |
| 2026-04-25 12:48 | 55.92191 | 37.08325 | 8809 ft | 279 kts | 254° |
| 2026-04-25 12:49 | 55.91760 | 37.04937 | 9507 ft | 282 kts | 264° |
| 2026-04-25 12:49 | 55.91927 | 37.01467 | 9905 ft | 284 kts | 288° |
| 2026-04-25 12:49 | 55.92892 | 36.98464 | 10005 ft | 285 kts | 313° |
| 2026-04-25 12:49 | 55.94428 | 36.96217 | 9995 ft | 287 kts | 325° |
| 2026-04-25 12:50 | 55.96109 | 36.94189 | 10000 ft | 288 kts | 326° |
| 2026-04-25 12:50 | 55.97864 | 36.92466 | 9996 ft | 289 kts | 340° |
| 2026-04-25 12:50 | 55.99814 | 36.91941 | 10001 ft | 289 kts | 4° |
| 2026-04-25 12:50 | 56.01726 | 36.92966 | 10176 ft | 290 kts | 28° |
| 2026-04-25 12:51 | 56.03454 | 36.94876 | 10724 ft | 294 kts | 33° |
| 2026-04-25 12:51 | 56.05165 | 36.96909 | 11562 ft | 295 kts | 33° |
| 2026-04-25 12:51 | 56.06885 | 36.98943 | 12352 ft | 298 kts | 33° |
| 2026-04-25 12:51 | 56.08623 | 37.00989 | 13085 ft | 301 kts | 33° |
| 2026-04-25 12:52 | 56.10364 | 37.03104 | 13684 ft | 304 kts | 37° |
| 2026-04-25 12:52 | 56.11814 | 37.05867 | 13961 ft | 306 kts | 58° |
| 2026-04-25 12:52 | 56.12616 | 37.09431 | 14160 ft | 316 kts | 75° |
| 2026-04-25 12:52 | 56.13171 | 37.13354 | 14499 ft | 330 kts | 76° |
| 2026-04-25 12:53 | 56.13721 | 37.17398 | 14886 ft | 336 kts | 76° |
| 2026-04-25 12:53 | 56.14286 | 37.21482 | 14999 ft | 337 kts | 76° |
| 2026-04-25 12:53 | 56.14825 | 37.25573 | 14999 ft | 338 kts | 79° |
| 2026-04-25 12:53 | 56.14903 | 37.29772 | 14998 ft | 338 kts | 98° |
| 2026-04-25 12:54 | 56.14159 | 37.33740 | 15002 ft | 337 kts | 120° |
| 2026-04-25 12:54 | 56.12685 | 37.36904 | 15099 ft | 338 kts | 141° |
| 2026-04-25 12:54 | 56.10630 | 37.38948 | 15588 ft | 341 kts | 162° |
| 2026-04-25 12:54 | 56.08384 | 37.40336 | 16289 ft | 342 kts | 158° |
| 2026-04-25 12:55 | 56.06197 | 37.42047 | 16951 ft | 345 kts | 155° |
| 2026-04-25 12:55 | 56.04719 | 37.43272 | 17424 ft | 347 kts | 155° |
| 2026-04-25 12:55 | 56.01802 | 37.45714 | 18252 ft | 352 kts | 155° |
| 2026-04-25 12:55 | 55.99577 | 37.47576 | 18889 ft | 355 kts | 155° |
| 2026-04-25 12:56 | 55.97345 | 37.49519 | 19503 ft | 359 kts | 151° |
| 2026-04-25 12:56 | 55.95334 | 37.52176 | 19902 ft | 361 kts | 134° |
| 2026-04-25 12:56 | 55.93899 | 37.55823 | 20059 ft | 363 kts | 114° |
| 2026-04-25 12:56 | 55.93155 | 37.60146 | 20466 ft | 367 kts | 101° |
| 2026-04-25 12:57 | 55.92667 | 37.64632 | 21102 ft | 369 kts | 101° |
| 2026-04-25 12:57 | 55.92189 | 37.69159 | 21725 ft | 372 kts | 101° |
| 2026-04-25 12:57 | 55.91583 | 37.73652 | 22278 ft | 375 kts | 109° |
| 2026-04-25 12:57 | 55.90513 | 37.77912 | 22830 ft | 378 kts | 118° |
| 2026-04-25 12:58 | 55.89241 | 37.82039 | 23364 ft | 381 kts | 119° |
| 2026-04-25 12:58 | 55.87937 | 37.86179 | 23888 ft | 385 kts | 119° |
| 2026-04-25 12:58 | 55.86639 | 37.90302 | 24398 ft | 388 kts | 119° |
| 2026-04-25 12:58 | 55.85313 | 37.94521 | 24895 ft | 391 kts | 119° |
| 2026-04-25 12:59 | 55.83979 | 37.98766 | 25382 ft | 394 kts | 119° |
| 2026-04-25 12:59 | 55.82636 | 38.03033 | 25865 ft | 397 kts | 119° |
| 2026-04-25 12:59 | 55.81297 | 38.07345 | 26314 ft | 400 kts | 117° |
| 2026-04-25 12:59 | 55.80229 | 38.11927 | 26758 ft | 403 kts | 106° |
| 2026-04-25 13:00 | 55.79724 | 38.16859 | 27073 ft | 410 kts | 93° |
| 2026-04-25 13:00 | 55.79698 | 38.20228 | 27209 ft | 416 kts | 88° |
| 2026-04-25 13:00 | 55.79860 | 38.27220 | 27459 ft | 429 kts | 87° |
| 2026-04-25 13:00 | 55.79996 | 38.32577 | 27674 ft | 439 kts | 87° |
| 2026-04-25 13:01 | 55.80171 | 38.38051 | 27862 ft | 448 kts | 84° |
| 2026-04-25 13:01 | 55.80714 | 38.43570 | 28080 ft | 457 kts | 75° |
| 2026-04-25 13:01 | 55.81630 | 38.49004 | 28443 ft | 461 kts | 72° |
| 2026-04-25 13:01 | 55.82618 | 38.54452 | 28838 ft | 465 kts | 72° |
| 2026-04-25 13:02 | 55.83612 | 38.59948 | 29252 ft | 468 kts | 72° |
| 2026-04-25 13:02 | 55.84609 | 38.65491 | 29648 ft | 471 kts | 72° |
| 2026-04-25 13:02 | 55.85661 | 38.71030 | 30037 ft | 475 kts | 68° |
| 2026-04-25 13:02 | 55.86994 | 38.76425 | 30406 ft | 477 kts | 65° |
| 2026-04-25 13:03 | 55.88421 | 38.81773 | 30765 ft | 480 kts | 64° |
| 2026-04-25 13:03 | 55.89866 | 38.87147 | 31123 ft | 482 kts | 64° |
| 2026-04-25 13:03 | 55.91311 | 38.92560 | 31461 ft | 485 kts | 64° |
| 2026-04-25 13:03 | 55.92732 | 38.97938 | 31770 ft | 487 kts | 65° |
| 2026-04-25 13:04 | 55.94178 | 39.03422 | 32071 ft | 490 kts | 65° |
| 2026-04-25 13:04 | 55.95530 | 39.09008 | 32342 ft | 492 kts | 70° |
| 2026-04-25 13:04 | 55.96437 | 39.14888 | 32704 ft | 492 kts | 79° |
| 2026-04-25 13:04 | 55.96885 | 39.20938 | 33140 ft | 490 kts | 84° |
| 2026-04-25 13:05 | 55.97212 | 39.26990 | 33532 ft | 490 kts | 84° |
| 2026-04-25 13:05 | 55.97526 | 39.33042 | 33895 ft | 489 kts | 84° |
| 2026-04-25 13:05 | 55.97840 | 39.39084 | 34260 ft | 488 kts | 84° |
| 2026-04-25 13:05 | 55.98152 | 39.45115 | 34609 ft | 488 kts | 84° |
| 2026-04-25 13:06 | 55.98463 | 39.51135 | 34942 ft | 487 kts | 85° |
| 2026-04-25 13:06 | 55.98771 | 39.57163 | 35280 ft | 486 kts | 85° |
| 2026-04-25 13:06 | 55.99222 | 39.63144 | 35565 ft | 486 kts | 78° |
| 2026-04-25 13:06 | 56.00130 | 39.68945 | 35842 ft | 485 kts | 69° |
| 2026-04-25 13:07 | 56.01465 | 39.74470 | 36105 ft | 485 kts | 67° |
| 2026-04-25 13:07 | 56.02597 | 39.80145 | 36360 ft | 484 kts | 74° |
| 2026-04-25 13:07 | 56.03306 | 39.86038 | 36590 ft | 485 kts | 83° |
| 2026-04-25 13:07 | 56.03497 | 39.92046 | 36801 ft | 485 kts | 92° |
| 2026-04-25 13:08 | 56.03319 | 39.98065 | 36970 ft | 486 kts | 91° |
| 2026-04-25 13:08 | 56.03330 | 40.04054 | 37000 ft | 490 kts | 89° |
| 2026-04-25 13:08 | 56.03409 | 40.16269 | 37000 ft | 491 kts | 89° |
| 2026-04-25 13:09 | 56.03530 | 40.28473 | 37000 ft | 491 kts | 89° |
| 2026-04-25 13:09 | 56.03665 | 40.40678 | 37000 ft | 491 kts | 89° |
| 2026-04-25 13:10 | 56.03790 | 40.52873 | 37000 ft | 491 kts | 89° |
| 2026-04-25 13:10 | 56.03901 | 40.65088 | 37000 ft | 491 kts | 89° |
| 2026-04-25 13:11 | 56.04001 | 40.77304 | 37000 ft | 491 kts | 89° |
| 2026-04-25 13:11 | 56.04088 | 40.89519 | 37000 ft | 491 kts | 89° |
| 2026-04-25 13:12 | 56.04156 | 41.01731 | 37000 ft | 491 kts | 89° |
| 2026-04-25 13:12 | 56.04204 | 41.11887 | 37000 ft | 491 kts | 89° |
| 2026-04-25 13:13 | 56.04260 | 41.26159 | 37000 ft | 491 kts | 90° |
| 2026-04-25 13:13 | 56.04296 | 41.38387 | 37000 ft | 491 kts | 90° |
| 2026-04-25 13:14 | 56.04319 | 41.50607 | 37000 ft | 491 kts | 90° |
| 2026-04-25 13:14 | 56.04330 | 41.62748 | 37000 ft | 491 kts | 90° |
| 2026-04-25 13:15 | 56.04329 | 41.74963 | 37000 ft | 491 kts | 90° |
| 2026-04-25 13:15 | 56.04317 | 41.87174 | 37000 ft | 491 kts | 90° |
| 2026-04-25 13:16 | 56.04292 | 41.99386 | 37000 ft | 491 kts | 90° |
| 2026-04-25 13:16 | 56.04255 | 42.11596 | 37000 ft | 491 kts | 90° |
| 2026-04-25 13:17 | 56.04206 | 42.23811 | 37000 ft | 491 kts | 90° |
| 2026-04-25 13:17 | 56.04145 | 42.36019 | 37000 ft | 491 kts | 90° |
| 2026-04-25 13:18 | 56.04072 | 42.48225 | 37000 ft | 491 kts | 90° |
| 2026-04-25 13:18 | 56.03978 | 42.60432 | 37000 ft | 491 kts | 91° |
| 2026-04-25 13:19 | 56.03823 | 42.72631 | 37000 ft | 491 kts | 91° |
| 2026-04-25 13:19 | 56.03707 | 42.80708 | 37000 ft | 491 kts | 91° |
| 2026-04-25 13:20 | 56.03469 | 42.96946 | 37000 ft | 491 kts | 91° |
| 2026-04-25 13:20 | 56.03282 | 43.09148 | 37000 ft | 491 kts | 91° |
| 2026-04-25 13:21 | 56.03085 | 43.21353 | 37000 ft | 491 kts | 91° |
| 2026-04-25 13:21 | 56.02987 | 43.33544 | 37000 ft | 491 kts | 86° |
| 2026-04-25 13:22 | 56.03662 | 43.45682 | 37000 ft | 491 kts | 83° |
| 2026-04-25 13:23 | 56.04900 | 43.63887 | 37000 ft | 491 kts | 83° |
| 2026-04-25 13:23 | 56.05721 | 43.76012 | 37000 ft | 491 kts | 83° |
| 2026-04-25 13:24 | 56.06519 | 43.88146 | 37000 ft | 491 kts | 83° |
| 2026-04-25 13:24 | 56.07295 | 44.00214 | 37000 ft | 491 kts | 83° |
| 2026-04-25 13:25 | 56.08064 | 44.12363 | 37000 ft | 491 kts | 83° |
| 2026-04-25 13:25 | 56.08820 | 44.24505 | 37000 ft | 491 kts | 83° |
| 2026-04-25 13:26 | 56.09565 | 44.36643 | 37000 ft | 490 kts | 84° |
| 2026-04-25 13:26 | 56.10298 | 44.48799 | 37000 ft | 490 kts | 84° |
| 2026-04-25 13:27 | 56.11018 | 44.60943 | 37000 ft | 491 kts | 84° |
| 2026-04-25 13:27 | 56.11141 | 44.73146 | 37000 ft | 490 kts | 91° |
| 2026-04-25 13:28 | 56.10928 | 44.85370 | 37000 ft | 491 kts | 92° |
| 2026-04-25 13:28 | 56.10654 | 44.97589 | 37000 ft | 491 kts | 92° |
| 2026-04-25 13:29 | 56.10371 | 45.09806 | 37000 ft | 490 kts | 92° |
| 2026-04-25 13:29 | 56.10078 | 45.22021 | 37000 ft | 491 kts | 92° |
| 2026-04-25 13:30 | 56.09631 | 45.40334 | 37000 ft | 490 kts | 92° |
| 2026-04-25 13:31 | 56.09214 | 45.56598 | 37000 ft | 491 kts | 92° |
| 2026-04-25 13:31 | 56.08832 | 45.70785 | 37000 ft | 491 kts | 93° |
| 2026-04-25 13:32 | 56.08491 | 45.83006 | 37000 ft | 491 kts | 93° |
| 2026-04-25 13:32 | 56.08137 | 45.95215 | 37000 ft | 491 kts | 93° |
| 2026-04-25 13:33 | 56.07835 | 46.05345 | 37000 ft | 490 kts | 93° |
| 2026-04-25 13:33 | 56.07460 | 46.17559 | 37000 ft | 491 kts | 93° |
| 2026-04-25 13:34 | 56.07072 | 46.29755 | 37000 ft | 491 kts | 93° |
| 2026-04-25 13:34 | 56.06672 | 46.41977 | 37000 ft | 491 kts | 93° |
| 2026-04-25 13:35 | 56.06331 | 46.52124 | 37000 ft | 491 kts | 93° |
| 2026-04-25 13:35 | 56.06286 | 46.66403 | 37000 ft | 491 kts | 88° |
| 2026-04-25 13:36 | 56.06531 | 46.78616 | 37000 ft | 491 kts | 88° |
| 2026-04-25 13:36 | 56.06711 | 46.90761 | 37000 ft | 491 kts | 89° |
| 2026-04-25 13:37 | 56.06820 | 47.02987 | 37000 ft | 491 kts | 89° |
| 2026-04-25 13:37 | 56.06897 | 47.15288 | 37000 ft | 491 kts | 89° |
| 2026-04-25 13:38 | 56.06960 | 47.27439 | 37000 ft | 491 kts | 89° |
| 2026-04-25 13:38 | 56.07015 | 47.39664 | 37000 ft | 491 kts | 89° |
| 2026-04-25 13:39 | 56.07060 | 47.51883 | 37000 ft | 491 kts | 90° |
| 2026-04-25 13:39 | 56.07092 | 47.64108 | 37000 ft | 491 kts | 90° |
| 2026-04-25 13:40 | 56.07112 | 47.76321 | 37000 ft | 491 kts | 90° |
| 2026-04-25 13:40 | 56.07120 | 47.88551 | 37000 ft | 491 kts | 90° |
| 2026-04-25 13:41 | 56.07123 | 48.00759 | 37000 ft | 490 kts | 90° |
| 2026-04-25 13:41 | 56.07110 | 48.12969 | 36999 ft | 491 kts | 90° |
| 2026-04-25 13:42 | 56.07085 | 48.25179 | 37000 ft | 491 kts | 90° |
| 2026-04-25 13:42 | 56.07049 | 48.37394 | 37000 ft | 490 kts | 90° |
| 2026-04-25 13:43 | 56.07001 | 48.49523 | 37000 ft | 491 kts | 90° |
| 2026-04-25 13:43 | 56.06942 | 48.61742 | 37000 ft | 491 kts | 90° |
| 2026-04-25 13:44 | 56.06870 | 48.73960 | 37000 ft | 491 kts | 90° |
| 2026-04-25 13:44 | 56.06786 | 48.86189 | 37000 ft | 491 kts | 91° |
| 2026-04-25 13:45 | 56.06690 | 48.98425 | 37000 ft | 491 kts | 91° |
| 2026-04-25 13:45 | 56.06582 | 49.10654 | 37000 ft | 491 kts | 91° |
| 2026-04-25 13:46 | 56.06462 | 49.22876 | 37000 ft | 491 kts | 91° |
| 2026-04-25 13:46 | 56.06330 | 49.35103 | 37000 ft | 491 kts | 91° |
| 2026-04-25 13:47 | 56.06186 | 49.47262 | 37000 ft | 491 kts | 91° |
| 2026-04-25 13:47 | 56.06030 | 49.59478 | 37000 ft | 491 kts | 91° |
| 2026-04-25 13:48 | 56.05862 | 49.71688 | 37000 ft | 491 kts | 91° |
| 2026-04-25 13:48 | 56.05683 | 49.83906 | 37000 ft | 491 kts | 91° |
| 2026-04-25 13:49 | 56.05491 | 49.96118 | 37000 ft | 491 kts | 91° |
| 2026-04-25 13:49 | 56.05287 | 50.08331 | 37000 ft | 491 kts | 92° |
| 2026-04-25 13:50 | 56.05071 | 50.20544 | 37000 ft | 491 kts | 92° |
| 2026-04-25 13:50 | 56.04843 | 50.32759 | 37000 ft | 491 kts | 92° |
| 2026-04-25 13:51 | 56.04603 | 50.44969 | 37000 ft | 491 kts | 92° |
| 2026-04-25 13:51 | 56.04351 | 50.57189 | 37000 ft | 491 kts | 92° |
| 2026-04-25 13:52 | 56.04089 | 50.69334 | 37000 ft | 491 kts | 92° |
| 2026-04-25 13:52 | 56.03813 | 50.81555 | 37000 ft | 491 kts | 92° |
| 2026-04-25 13:53 | 56.03660 | 50.93776 | 37000 ft | 491 kts | 89° |
| 2026-04-25 13:53 | 56.03774 | 51.06006 | 37000 ft | 491 kts | 89° |
| 2026-04-25 13:54 | 56.03879 | 51.18151 | 37000 ft | 491 kts | 89° |
| 2026-04-25 13:54 | 56.03928 | 51.30378 | 37000 ft | 491 kts | 90° |
| 2026-04-25 13:55 | 56.03942 | 51.42586 | 37000 ft | 491 kts | 90° |
| 2026-04-25 13:55 | 56.03940 | 51.54788 | 37000 ft | 491 kts | 90° |
| 2026-04-25 13:56 | 56.03929 | 51.66992 | 37000 ft | 491 kts | 90° |
| 2026-04-25 13:56 | 56.03906 | 51.79204 | 37000 ft | 491 kts | 90° |
| 2026-04-25 13:57 | 56.04020 | 51.91412 | 37000 ft | 491 kts | 86° |
| 2026-04-25 13:57 | 56.04521 | 52.03511 | 37000 ft | 491 kts | 85° |
| 2026-04-25 13:58 | 56.05038 | 52.15690 | 37000 ft | 491 kts | 86° |
| 2026-04-25 13:58 | 56.05480 | 52.27894 | 37000 ft | 491 kts | 86° |
| 2026-04-25 13:59 | 56.05877 | 52.40104 | 37000 ft | 491 kts | 86° |
| 2026-04-25 13:59 | 56.06255 | 52.52316 | 37000 ft | 491 kts | 87° |
| 2026-04-25 14:00 | 56.06501 | 52.60391 | 37000 ft | 491 kts | 87° |
| 2026-04-25 14:00 | 56.06957 | 52.76735 | 37000 ft | 491 kts | 87° |
| 2026-04-25 14:01 | 56.07252 | 52.88849 | 37000 ft | 491 kts | 87° |
| 2026-04-25 14:01 | 56.07543 | 53.01061 | 37000 ft | 490 kts | 88° |
| 2026-04-25 14:02 | 56.07827 | 53.13262 | 37000 ft | 491 kts | 88° |
| 2026-04-25 14:02 | 56.08101 | 53.25479 | 37000 ft | 491 kts | 88° |
| 2026-04-25 14:03 | 56.08364 | 53.37704 | 37000 ft | 491 kts | 88° |
| 2026-04-25 14:03 | 56.08614 | 53.49929 | 37000 ft | 491 kts | 88° |
| 2026-04-25 14:04 | 56.08853 | 53.62130 | 37000 ft | 491 kts | 88° |
| 2026-04-25 14:04 | 56.09083 | 53.74380 | 37000 ft | 491 kts | 88° |
| 2026-04-25 14:05 | 56.09298 | 53.86518 | 37000 ft | 491 kts | 88° |
| 2026-04-25 14:05 | 56.09502 | 53.98740 | 37000 ft | 491 kts | 88° |
| 2026-04-25 14:06 | 56.09695 | 54.10973 | 37000 ft | 491 kts | 88° |
| 2026-04-25 14:06 | 56.09876 | 54.23185 | 37000 ft | 491 kts | 88° |
| 2026-04-25 14:07 | 56.09815 | 54.35402 | 37000 ft | 491 kts | 97° |
| 2026-04-25 14:07 | 56.08714 | 54.47455 | 37000 ft | 491 kts | 101° |
| 2026-04-25 14:08 | 56.07410 | 54.59451 | 37000 ft | 491 kts | 101° |
| 2026-04-25 14:08 | 56.06068 | 54.71443 | 37000 ft | 491 kts | 101° |
| 2026-04-25 14:09 | 56.04728 | 54.83423 | 37000 ft | 491 kts | 101° |
| 2026-04-25 14:09 | 56.03396 | 54.95323 | 37000 ft | 491 kts | 101° |
| 2026-04-25 14:10 | 56.02046 | 55.07295 | 37000 ft | 491 kts | 101° |
| 2026-04-25 14:10 | 56.00685 | 55.19246 | 37000 ft | 491 kts | 101° |
| 2026-04-25 14:11 | 55.99312 | 55.31190 | 37000 ft | 491 kts | 102° |
| 2026-04-25 14:11 | 55.97925 | 55.43147 | 37000 ft | 491 kts | 102° |
| 2026-04-25 14:12 | 55.96530 | 55.55076 | 37000 ft | 491 kts | 102° |
| 2026-04-25 14:12 | 55.95126 | 55.66990 | 37000 ft | 491 kts | 102° |
| 2026-04-25 14:13 | 55.93709 | 55.78894 | 37000 ft | 490 kts | 102° |
| 2026-04-25 14:13 | 55.92288 | 55.90737 | 37000 ft | 491 kts | 102° |
| 2026-04-25 14:14 | 55.90847 | 56.02639 | 37000 ft | 491 kts | 102° |
| 2026-04-25 14:14 | 55.89396 | 56.14523 | 37000 ft | 491 kts | 102° |
| 2026-04-25 14:15 | 55.87931 | 56.26419 | 37000 ft | 491 kts | 102° |
| 2026-04-25 14:15 | 55.86456 | 56.38296 | 37000 ft | 491 kts | 102° |
| 2026-04-25 14:16 | 55.84969 | 56.50165 | 37000 ft | 491 kts | 103° |
| 2026-04-25 14:16 | 55.83479 | 56.61957 | 37000 ft | 491 kts | 103° |
| 2026-04-25 14:17 | 55.81970 | 56.73809 | 37000 ft | 491 kts | 103° |
| 2026-04-25 14:17 | 55.80455 | 56.85653 | 37000 ft | 492 kts | 103° |
| 2026-04-25 14:18 | 55.78924 | 56.97489 | 37000 ft | 491 kts | 103° |
| 2026-04-25 14:18 | 55.77382 | 57.09307 | 37000 ft | 491 kts | 103° |
| 2026-04-25 14:19 | 55.75828 | 57.21141 | 36945 ft | 492 kts | 103° |
| 2026-04-25 14:19 | 55.75049 | 57.27033 | 36706 ft | 488 kts | 103° |
| 2026-04-25 14:19 | 55.74272 | 57.32892 | 36454 ft | 487 kts | 103° |
| 2026-04-25 14:19 | 55.73494 | 57.38731 | 36212 ft | 487 kts | 103° |
| 2026-04-25 14:20 | 55.72714 | 57.44566 | 36028 ft | 487 kts | 103° |
| 2026-04-25 14:20 | 55.71406 | 57.54290 | 35998 ft | 488 kts | 103° |
| 2026-04-25 14:21 | 55.69823 | 57.65985 | 35997 ft | 487 kts | 103° |
| 2026-04-25 14:21 | 55.68229 | 57.77667 | 36002 ft | 487 kts | 103° |
| 2026-04-25 14:22 | 55.66624 | 57.89337 | 35999 ft | 487 kts | 104° |
| 2026-04-25 14:22 | 55.65013 | 58.01011 | 35998 ft | 487 kts | 104° |
| 2026-04-25 14:23 | 55.63398 | 58.12569 | 35998 ft | 487 kts | 104° |
| 2026-04-25 14:23 | 55.61764 | 58.24180 | 35453 ft | 484 kts | 104° |
| 2026-04-25 14:23 | 55.60945 | 58.29972 | 34755 ft | 485 kts | 104° |
| 2026-04-25 14:24 | 55.60128 | 58.35733 | 34242 ft | 481 kts | 104° |
| 2026-04-25 14:24 | 55.59313 | 58.41450 | 33741 ft | 476 kts | 104° |
| 2026-04-25 14:24 | 55.58504 | 58.47112 | 33283 ft | 472 kts | 104° |
| 2026-04-25 14:24 | 55.57703 | 58.52699 | 32821 ft | 467 kts | 104° |
| 2026-04-25 14:25 | 55.56904 | 58.58245 | 32366 ft | 463 kts | 104° |
| 2026-04-25 14:25 | 55.56112 | 58.63728 | 31907 ft | 458 kts | 104° |
| 2026-04-25 14:25 | 55.55326 | 58.69150 | 31473 ft | 454 kts | 104° |
| 2026-04-25 14:25 | 55.54808 | 58.72714 | 31182 ft | 451 kts | 104° |
| 2026-04-25 14:26 | 55.53768 | 58.79842 | 30593 ft | 445 kts | 104° |
| 2026-04-25 14:26 | 55.52996 | 58.85111 | 30166 ft | 441 kts | 104° |
| 2026-04-25 14:26 | 55.52231 | 58.90319 | 29754 ft | 436 kts | 104° |
| 2026-04-25 14:26 | 55.51480 | 58.95415 | 29340 ft | 432 kts | 104° |
| 2026-04-25 14:27 | 55.50725 | 59.00516 | 28912 ft | 428 kts | 104° |
| 2026-04-25 14:27 | 55.49976 | 59.05568 | 28488 ft | 423 kts | 104° |
| 2026-04-25 14:27 | 55.49235 | 59.10548 | 28093 ft | 419 kts | 105° |
| 2026-04-25 14:27 | 55.48494 | 59.15512 | 27688 ft | 415 kts | 105° |
| 2026-04-25 14:28 | 55.47762 | 59.20399 | 27287 ft | 411 kts | 105° |
| 2026-04-25 14:28 | 55.47033 | 59.25253 | 26893 ft | 407 kts | 105° |
| 2026-04-25 14:28 | 55.46311 | 59.30044 | 26493 ft | 403 kts | 105° |
| 2026-04-25 14:28 | 55.45595 | 59.34788 | 26100 ft | 399 kts | 105° |
| 2026-04-25 14:29 | 55.44882 | 59.39492 | 25710 ft | 395 kts | 105° |
| 2026-04-25 14:29 | 55.44175 | 59.44141 | 25323 ft | 391 kts | 105° |
| 2026-04-25 14:29 | 55.43472 | 59.48758 | 24939 ft | 388 kts | 105° |
| 2026-04-25 14:29 | 55.42774 | 59.53327 | 24550 ft | 385 kts | 105° |
| 2026-04-25 14:30 | 55.42077 | 59.57871 | 24176 ft | 384 kts | 105° |
| 2026-04-25 14:30 | 55.41217 | 59.63470 | 23695 ft | 381 kts | 105° |
| 2026-04-25 14:34 | 55.40819 | 59.66053 | 23476 ft | 380 kts | 105° |
| 2026-04-25 14:34 | 55.40128 | 59.70527 | 23095 ft | 378 kts | 105° |
| 2026-04-25 14:34 | 55.39526 | 59.75008 | 22720 ft | 375 kts | 98° |
| 2026-04-25 14:35 | 55.39387 | 59.79566 | 22380 ft | 373 kts | 89° |
| 2026-04-25 14:35 | 55.39463 | 59.84117 | 22005 ft | 371 kts | 88° |
| 2026-04-25 14:35 | 55.39576 | 59.88645 | 21626 ft | 370 kts | 87° |
| 2026-04-25 14:35 | 55.39697 | 59.93155 | 21252 ft | 368 kts | 87° |
| 2026-04-25 14:36 | 55.39821 | 59.97650 | 20878 ft | 366 kts | 87° |
| 2026-04-25 14:36 | 55.39944 | 60.02100 | 20509 ft | 363 kts | 87° |
| 2026-04-25 14:36 | 55.40065 | 60.06521 | 20139 ft | 361 kts | 87° |
| 2026-04-25 14:36 | 55.40185 | 60.10923 | 19773 ft | 359 kts | 87° |
| 2026-04-25 14:37 | 55.40303 | 60.15291 | 19407 ft | 356 kts | 87° |
| 2026-04-25 14:37 | 55.40409 | 60.19631 | 19054 ft | 354 kts | 88° |
| 2026-04-25 14:37 | 55.40444 | 60.23897 | 18707 ft | 352 kts | 89° |
| 2026-04-25 14:37 | 55.40462 | 60.28200 | 18351 ft | 350 kts | 89° |
| 2026-04-25 14:38 | 55.40485 | 60.32522 | 17987 ft | 348 kts | 89° |
| 2026-04-25 14:38 | 55.40510 | 60.36718 | 17644 ft | 346 kts | 89° |
| 2026-04-25 14:38 | 55.40536 | 60.40937 | 17298 ft | 344 kts | 89° |
| 2026-04-25 14:38 | 55.40563 | 60.45144 | 16940 ft | 343 kts | 89° |
| 2026-04-25 14:39 | 55.40589 | 60.49333 | 16591 ft | 341 kts | 89° |
| 2026-04-25 14:39 | 55.40615 | 60.53489 | 16253 ft | 339 kts | 89° |
| 2026-04-25 14:39 | 55.40635 | 60.56946 | 15965 ft | 338 kts | 89° |
| 2026-04-25 15:10 | 55.40651 | 60.59841 | 15726 ft | 337 kts | 89° |
| 2026-04-25 15:10 | 55.40693 | 60.68087 | 15035 ft | 333 kts | 89° |
| 2026-04-25 15:11 | 55.40712 | 60.72093 | 14705 ft | 331 kts | 89° |
| 2026-04-25 15:11 | 55.40729 | 60.76138 | 14368 ft | 330 kts | 89° |
| 2026-04-25 15:11 | 55.40745 | 60.80163 | 14028 ft | 328 kts | 89° |
| 2026-04-25 15:12 | 55.40821 | 60.88137 | 13377 ft | 324 kts | 88° |
| 2026-04-25 15:12 | 55.40876 | 60.92103 | 13029 ft | 323 kts | 89° |
| 2026-04-25 15:12 | 55.40928 | 60.96039 | 12707 ft | 321 kts | 89° |
| 2026-04-25 15:12 | 55.40961 | 60.98691 | 12488 ft | 320 kts | 89° |
| 2026-04-25 15:13 | 55.41022 | 61.03864 | 12034 ft | 318 kts | 89° |
| 2026-04-25 15:13 | 55.41108 | 61.11610 | 11386 ft | 315 kts | 89° |
| 2026-04-25 15:13 | 55.41149 | 61.15462 | 11066 ft | 313 kts | 89° |
| 2026-04-25 15:14 | 55.41188 | 61.19280 | 10732 ft | 312 kts | 89° |
| 2026-04-25 15:14 | 55.41226 | 61.23071 | 10405 ft | 308 kts | 89° |
| 2026-04-25 15:14 | 55.41262 | 61.26770 | 10229 ft | 293 kts | 89° |
| 2026-04-25 15:14 | 55.41294 | 61.30225 | 10117 ft | 271 kts | 89° |
| 2026-04-25 15:15 | 55.41323 | 61.33481 | 10020 ft | 269 kts | 89° |
| 2026-04-25 15:15 | 55.41353 | 61.36847 | 9913 ft | 284 kts | 89° |
| 2026-04-25 15:15 | 55.41383 | 61.40357 | 9708 ft | 286 kts | 89° |
| 2026-04-25 15:15 | 55.41412 | 61.43858 | 9249 ft | 287 kts | 89° |
| 2026-04-25 15:16 | 55.41440 | 61.47386 | 8940 ft | 288 kts | 89° |
| 2026-04-25 15:16 | 55.41467 | 61.50903 | 8652 ft | 287 kts | 89° |
| 2026-04-25 15:16 | 55.41496 | 61.57899 | 8114 ft | 284 kts | 92° |
| 2026-04-25 15:17 | 55.40404 | 61.64532 | 7811 ft | 284 kts | 112° |
| 2026-04-25 15:17 | 55.39649 | 61.67754 | 7306 ft | 286 kts | 112° |
| 2026-04-25 15:17 | 55.38889 | 61.70998 | 6772 ft | 288 kts | 112° |
| 2026-04-25 15:18 | 55.38129 | 61.74260 | 6313 ft | 288 kts | 112° |
| 2026-04-25 15:18 | 55.36650 | 61.80630 | 5312 ft | 272 kts | 112° |
| 2026-04-25 15:18 | 55.35785 | 61.83464 | 4803 ft | 262 kts | 129° |
| 2026-04-25 15:19 | 55.34372 | 61.85287 | 4401 ft | 247 kts | 161° |
| 2026-04-25 15:19 | 55.33264 | 61.85694 | 4142 ft | 238 kts | 179° |
| 2026-04-25 15:19 | 55.31232 | 61.84660 | 3617 ft | 226 kts | 215° |
| 2026-04-25 15:19 | 55.30164 | 61.82803 | 3236 ft | 211 kts | 230° |
| 2026-04-25 15:20 | 55.29170 | 61.81071 | 2951 ft | 189 kts | 219° |
| 2026-04-25 15:20 | 55.28220 | 61.79697 | 2862 ft | 170 kts | 223° |
| 2026-04-25 15:20 | 55.27469 | 61.77986 | 2784 ft | 184 kts | 243° |
| 2026-04-25 15:20 | 55.27157 | 61.75811 | 2691 ft | 186 kts | 269° |
| 2026-04-25 15:21 | 55.27332 | 61.73591 | 2581 ft | 178 kts | 283° |
| 2026-04-25 15:21 | 55.27630 | 61.71573 | 2325 ft | 168 kts | 285° |
| 2026-04-25 15:21 | 55.27946 | 61.69591 | 1937 ft | 167 kts | 285° |
| 2026-04-25 15:21 | 55.28262 | 61.67684 | 1673 ft | 159 kts | 286° |
| 2026-04-25 15:22 | 55.28517 | 61.65883 | 1476 ft | 146 kts | 282° |
| 2026-04-25 15:22 | 55.28716 | 61.64171 | 1343 ft | 144 kts | 281° |
| 2026-04-25 15:22 | 55.28929 | 61.62433 | 1270 ft | 147 kts | 283° |
| 2026-04-25 15:22 | 55.29154 | 61.60667 | 1191 ft | 148 kts | 283° |
| 2026-04-25 15:23 | 55.29401 | 61.58904 | 1139 ft | 149 kts | 284° |
| 2026-04-25 15:23 | 55.29650 | 61.57148 | 1060 ft | 148 kts | 283° |
| 2026-04-25 15:23 | 55.29893 | 61.55386 | 935 ft | 148 kts | 283° |
| 2026-04-25 15:23 | 55.30126 | 61.53640 | 845 ft | 147 kts | 283° |
| 2026-04-25 15:24 | 55.30364 | 61.51872 | 773 ft | 149 kts | 283° |
| 2026-04-25 15:24 | 55.30558 | 61.50445 | 774 ft | 71 kts | 284° |
| 2026-04-25 15:24 | 55.30630 | 61.49945 | 778 ft | 34 kts | 284° |
| 2026-04-25 15:24 | 55.30663 | 61.49715 | 779 ft | 25 kts | 284° |
| 2026-04-25 15:25 | 55.30701 | 61.49445 | 778 ft | 9 kts | 283° |